Time;durP1;ratioP1;P1;durP2;ratioP2;P2;SDS_P1;SDS_P2;PMS_P1;PMS_P2;Temp;Humidity;BMP_temperature;BMP_pressure;BME280_temperature;BME280_humidity;BME280_pressure;Samples;Min_cycle;Max_cycle;Signal;HPM_P1;HPM_P2
2022/07/18 00:01:58;;;;;;;4.35;3.85;;;;;;;29.45;36.46;97207.56;5093060;28;20020;-30
2022/07/18 00:04:24;;;;;;;4.72;4.43;;;;;;;29.43;36.67;97202.50;5095671;28;20020;-29
2022/07/18 00:06:50;;;;;;;4.32;3.92;;;;;;;29.43;37.02;97205.28;5096859;28;20466;-30
2022/07/18 00:09:16;;;;;;;4.03;3.72;;;;;;;29.43;37.09;97210.13;5096573;28;20083;-30
2022/07/18 00:11:41;;;;;;;4.30;3.95;;;;;;;29.47;37.03;97205.00;5096789;28;20051;-30
2022/07/18 00:14:07;;;;;;;4.70;4.18;;;;;;;29.40;37.07;97206.38;5096676;28;20416;-30
2022/07/18 00:16:33;;;;;;;4.68;4.10;;;;;;;29.38;37.17;97202.63;5096521;28;20107;-30
2022/07/18 00:18:59;;;;;;;4.72;4.32;;;;;;;29.39;37.06;97204.13;5096705;28;20020;-29
2022/07/18 00:21:25;;;;;;;4.85;4.45;;;;;;;29.40;37.25;97211.97;5096852;28;20056;-31
2022/07/18 00:23:51;;;;;;;4.80;4.40;;;;;;;29.39;37.27;97202.09;5096435;28;20508;-30
2022/07/18 00:26:17;;;;;;;4.78;4.38;;;;;;;29.37;37.26;97201.84;5096482;28;20032;-30
2022/07/18 00:28:42;;;;;;;4.55;4.15;;;;;;;29.37;37.23;97201.06;5096364;28;20032;-30
2022/07/18 00:31:08;;;;;;;4.68;4.28;;;;;;;29.37;37.56;97203.88;5096213;28;20020;-30
2022/07/18 00:33:33;;;;;;;4.50;4.20;;;;;;;29.38;37.28;97200.56;5096366;28;20366;-31
2022/07/18 00:35:59;;;;;;;4.38;3.92;;;;;;;29.35;37.16;97193.22;5096365;28;20073;-31
2022/07/18 00:38:24;;;;;;;5.57;4.43;;;;;;;29.37;37.73;97196.25;5093004;28;20031;-31
2022/07/18 00:40:50;;;;;;;4.43;4.03;;;;;;;29.37;37.47;97189.91;5096445;28;20032;-30
2022/07/18 00:43:16;;;;;;;4.57;4.22;;;;;;;29.38;37.41;97192.19;5096173;28;20026;-30
2022/07/18 00:45:46;;;;;;;4.53;4.10;;;;;;;29.35;37.51;97187.63;5096007;28;20474;-30
2022/07/18 00:48:11;;;;;;;4.75;4.35;;;;;;;29.39;37.47;97187.34;5095934;28;20061;-29
2022/07/18 00:50:37;;;;;;;4.68;4.28;;;;;;;29.39;37.45;97188.13;5095958;28;20021;-30
2022/07/18 00:53:04;;;;;;;4.32;4.00;;;;;;;29.39;37.65;97188.13;5095753;28;20502;-30
2022/07/18 00:55:30;;;;;;;4.50;4.10;;;;;;;29.40;37.44;97192.41;5095888;28;20020;-30
2022/07/18 00:57:56;;;;;;;4.20;3.90;;;;;;;29.41;37.63;97193.94;5095932;28;20384;-31
2022/07/18 01:03:06;;;;;;;4.85;4.45;;;;;;;29.37;37.76;97195.50;5095960;28;20039;-31
2022/07/18 01:05:31;;;;;;;5.30;4.90;;;;;;;29.41;37.61;97188.34;5095556;28;20028;-30
2022/07/18 01:07:57;;;;;;;4.68;4.28;;;;;;;29.37;37.87;97184.31;5095405;28;20024;-30
2022/07/18 01:10:22;;;;;;;4.43;4.13;;;;;;;29.36;37.76;97183.56;5095405;28;20071;-31
2022/07/18 01:12:48;;;;;;;4.65;4.22;;;;;;;29.39;37.68;97184.56;5095471;28;20032;-30
2022/07/18 01:15:13;;;;;;;4.90;4.50;;;;;;;29.42;37.54;97181.47;5095078;28;20469;-32
2022/07/18 01:17:39;;;;;;;4.53;4.13;;;;;;;29.40;37.53;97174.91;5095308;28;20032;-30
2022/07/18 01:20:05;;;;;;;4.95;4.50;;;;;;;29.43;37.52;97187.78;5095191;28;20032;-30
2022/07/18 01:22:31;;;;;;;4.40;3.95;;;;;;;29.36;37.82;97183.56;5095355;28;20027;-30
2022/07/18 01:24:57;;;;;;;4.80;4.40;;;;;;;29.37;37.63;97184.31;5095403;28;20051;-30
2022/07/18 01:27:23;;;;;;;4.32;3.95;;;;;;;29.40;37.71;97189.63;5094995;28;20486;-30
2022/07/18 01:29:51;;;;;;;4.30;3.90;;;;;;;29.39;37.75;97181.78;5095423;28;20050;-30
2022/07/18 01:32:17;;;;;;;4.93;4.53;;;;;;;29.36;38.13;97183.56;5095212;28;20462;-29
2022/07/18 01:34:47;;;;;;;5.20;4.80;;;;;;;29.38;37.93;97185.84;5094960;28;20488;-29
2022/07/18 01:37:15;;;;;;;5.10;4.60;;;;;;;29.36;37.78;97182.81;5095089;28;20035;-30
2022/07/18 01:39:41;;;;;;;4.18;3.88;;;;;;;29.36;37.70;97189.16;5094996;28;20070;-30
2022/07/18 01:42:08;;;;;;;4.90;4.50;;;;;;;29.38;37.85;97186.59;5094910;28;20031;-30
2022/07/18 01:44:35;;;;;;;4.75;4.32;;;;;;;29.33;38.09;97181.81;5094759;28;20097;-30
2022/07/18 01:47:01;;;;;;;4.72;4.32;;;;;;;29.37;37.87;97190.66;5095061;28;20020;-30
2022/07/18 01:49:29;;;;;;;4.50;4.10;;;;;;;29.36;38.00;97183.56;5095028;28;20020;-30
2022/07/18 01:51:56;;;;;;;4.97;4.57;;;;;;;29.36;38.01;97177.97;5095219;28;20027;-31
2022/07/18 01:54:28;;;;;;;4.50;4.18;;;;;;;29.40;37.80;97172.84;5094509;28;20016;-30
2022/07/18 01:56:55;;;;;;;4.80;4.40;;;;;;;29.39;37.99;97182.53;5094743;28;20078;-30
2022/07/18 01:59:22;;;;;;;4.55;4.15;;;;;;;29.40;37.59;97184.03;5094787;28;20027;-29
2022/07/18 02:01:48;;;;;;;5.40;4.82;;;;;;;29.38;37.70;97183.81;5094833;28;20481;-30
2022/07/18 02:04:13;;;;;;;4.57;4.18;;;;;;;29.32;38.04;97183.13;5094597;28;20021;-30
2022/07/18 02:06:39;;;;;;;4.65;4.25;;;;;;;29.35;37.65;97176.47;5094689;28;20024;-30
2022/07/18 02:09:06;;;;;;;4.55;4.15;;;;;;;29.35;37.95;97176.47;5094046;28;20040;-29
2022/07/18 02:11:32;;;;;;;5.68;4.78;;;;;;;29.35;37.87;97175.72;5093635;28;20020;-30
2022/07/18 02:13:57;;;;;;;4.80;4.40;;;;;;;29.34;38.04;97180.53;5094383;28;20035;-30
2022/07/18 02:16:23;;;;;;;4.90;4.50;;;;;;;29.34;37.92;97180.53;5094418;28;20478;-30
2022/07/18 02:18:48;;;;;;;7.55;4.97;;;;;;;29.34;37.81;97180.53;5093045;28;20031;-31
2022/07/18 02:21:14;;;;;;;7.13;4.65;;;;;;;29.31;38.01;97179.56;5094184;28;20420;-31
2022/07/18 02:23:40;;;;;;;4.72;4.30;;;;;;;29.30;38.08;97177.34;5094077;28;20107;-30
2022/07/18 02:26:07;;;;;;;5.22;4.72;;;;;;;29.34;37.95;97177.75;5093638;28;20103;-30
2022/07/18 02:28:33;;;;;;;5.15;4.68;;;;;;;29.35;37.97;97173.66;5093845;28;20069;-30
2022/07/18 02:30:58;;;;;;;4.68;4.28;;;;;;;29.35;37.70;97170.88;5093896;28;20424;-30
2022/07/18 02:33:24;;;;;;;4.85;4.38;;;;;;;29.29;37.96;97175.81;5093987;28;20023;-30
2022/07/18 02:35:49;;;;;;;4.38;4.07;;;;;;;29.31;37.83;97171.19;5093924;28;20128;-30
2022/07/18 02:38:15;;;;;;;4.65;4.30;;;;;;;29.35;37.93;97173.66;5094242;28;20030;-30
2022/07/18 02:40:40;;;;;;;4.40;4.00;;;;;;;29.34;37.79;97169.38;5094011;28;20080;-30
2022/07/18 02:43:06;;;;;;;4.50;4.10;;;;;;;29.31;38.13;97170.44;5093828;28;20054;-30
2022/07/18 02:45:31;;;;;;;4.80;4.40;;;;;;;29.31;37.89;97173.22;5093909;28;20037;-30
2022/07/18 02:47:57;;;;;;;5.00;4.60;;;;;;;29.28;38.08;97172.28;5093904;28;20035;-30
2022/07/18 02:50:22;;;;;;;4.60;4.10;;;;;;;29.29;38.10;97173.03;5093822;28;20027;-30
2022/07/18 02:52:50;;;;;;;4.68;4.22;;;;;;;29.36;37.67;97180.00;5093577;28;20039;-29
2022/07/18 02:55:16;;;;;;;5.85;4.32;;;;;;;29.30;37.82;97164.09;5094036;28;20442;-30
2022/07/18 02:57:42;;;;;;;4.75;4.35;;;;;;;29.31;37.81;97176.03;5093663;28;20024;-30
2022/07/18 03:00:10;;;;;;;5.05;4.65;;;;;;;29.28;37.96;97169.47;5093515;28;20027;-30
2022/07/18 03:02:36;;;;;;;4.70;4.30;;;;;;;29.25;37.83;97173.34;5093583;28;20027;-29
2022/07/18 03:05:03;;;;;;;5.07;4.68;;;;;;;29.29;37.77;97173.03;5093842;28;20024;-30
2022/07/18 03:07:28;;;;;;;5.45;4.65;;;;;;;29.29;37.82;97167.44;5093779;28;20028;-30
2022/07/18 03:09:54;;;;;;;5.07;4.68;;;;;;;29.33;37.88;97167.09;5093017;28;20048;-30
2022/07/18 03:12:19;;;;;;;4.82;4.43;;;;;;;29.27;38.09;97172.81;5093512;28;20099;-30
2022/07/18 03:14:45;;;;;;;4.65;4.28;;;;;;;29.29;38.02;97182.16;5093552;28;20419;-30
2022/07/18 03:17:10;;;;;;;5.00;4.60;;;;;;;29.31;37.81;97170.44;5093435;28;20032;-30
2022/07/18 03:19:37;;;;;;;4.53;4.22;;;;;;;29.31;37.69;97176.03;5093296;28;20020;-29
2022/07/18 03:22:03;;;;;;;5.18;4.72;;;;;;;29.26;38.23;97174.84;5093449;28;20066;-30
2022/07/18 03:24:29;;;;;;;4.93;4.47;;;;;;;29.24;37.91;97177.41;5093271;28;20028;-30
2022/07/18 03:26:56;;;;;;;4.80;4.40;;;;;;;29.14;38.25;97179.13;5093243;28;20469;-30
2022/07/18 03:29:21;;;;;;;5.00;4.50;;;;;;;29.25;38.10;97176.13;5093536;28;20028;-30
2022/07/18 03:31:47;;;;;;;4.60;4.20;;;;;;;29.28;37.92;97177.09;5093320;28;20028;-30
2022/07/18 03:34:13;;;;;;;4.63;4.22;;;;;;;29.29;37.67;97175.81;5093227;28;20099;-30
2022/07/18 03:36:39;;;;;;;5.03;4.53;;;;;;;29.29;37.82;97179.38;5093112;28;20497;-30
2022/07/18 03:39:05;;;;;;;4.82;4.43;;;;;;;29.28;37.72;97177.88;5095900;28;20027;-33
2022/07/18 03:41:31;;;;;;;4.63;4.28;;;;;;;29.23;37.86;97177.94;5097263;28;20073;-29
2022/07/18 03:43:56;;;;;;;5.10;4.70;;;;;;;29.26;37.83;97177.63;5097205;28;20107;-30
2022/07/18 03:46:22;;;;;;;4.60;4.20;;;;;;;29.23;38.00;97187.09;5097160;28;20028;-30
2022/07/18 03:48:48;;;;;;;4.60;4.30;;;;;;;29.25;37.96;97184.50;5097204;28;20065;-30
2022/07/18 03:51:14;;;;;;;5.07;4.57;;;;;;;29.26;38.02;97174.84;5097148;28;20032;-29
2022/07/18 03:53:40;;;;;;;4.65;4.25;;;;;;;29.26;37.97;97180.44;5097077;28;20374;-30
2022/07/18 03:56:05;;;;;;;4.75;4.35;;;;;;;29.29;37.74;97184.19;5097231;28;20054;-30
2022/07/18 03:58:31;;;;;;;4.80;4.40;;;;;;;29.28;37.81;97179.91;5096978;28;20035;-30
2022/07/18 04:00:56;;;;;;;5.00;4.60;;;;;;;29.24;37.95;97177.41;5096865;28;20464;-29
2022/07/18 04:03:22;;;;;;;5.85;4.60;;;;;;;29.26;37.88;97180.44;5096991;28;20107;-30
2022/07/18 04:05:48;;;;;;;4.78;4.28;;;;;;;29.22;37.83;97177.19;5097041;28;20030;-31
2022/07/18 04:08:13;;;;;;;4.72;4.32;;;;;;;29.24;37.82;97188.59;5095200;28;20058;-30
2022/07/18 04:10:39;;;;;;;4.82;4.43;;;;;;;29.26;37.74;97174.09;5096758;28;20019;-30
2022/07/18 04:13:06;;;;;;;4.80;4.40;;;;;;;29.25;37.79;97184.50;5096673;28;20022;-31
2022/07/18 04:15:32;;;;;;;4.88;4.43;;;;;;;29.23;37.86;97180.75;5096686;28;20023;-30
2022/07/18 04:17:58;;;;;;;4.80;4.40;;;;;;;29.25;37.82;97178.94;5096588;28;20028;-29
2022/07/18 04:20:24;;;;;;;5.20;4.70;;;;;;;29.22;37.93;97179.97;5096884;28;20103;-30
2022/07/18 04:22:53;;;;;;;5.07;4.60;;;;;;;29.21;37.72;97178.47;5096340;28;20062;-30
2022/07/18 04:25:21;;;;;;;4.75;4.30;;;;;;;29.25;37.69;97186.56;5096634;28;20024;-31
2022/07/18 04:27:47;;;;;;;4.57;4.20;;;;;;;29.25;37.67;97190.09;5096654;28;20107;-29
2022/07/18 04:30:14;;;;;;;4.50;4.10;;;;;;;29.25;37.66;97186.56;5096472;28;20028;-30
2022/07/18 04:32:40;;;;;;;4.50;4.18;;;;;;;29.25;37.64;97192.88;5094950;28;20118;-30
2022/07/18 04:35:07;;;;;;;4.70;4.30;;;;;;;29.25;37.97;97189.34;5096338;28;20047;-30
2022/07/18 04:37:32;;;;;;;4.55;4.10;;;;;;;29.25;37.56;97192.88;5096360;28;20066;-31
2022/07/18 04:39:59;;;;;;;5.18;4.47;;;;;;;29.24;37.69;97190.63;5096184;28;20070;-30
2022/07/18 04:42:25;;;;;;;4.97;4.57;;;;;;;29.24;37.60;97196.97;5096099;28;20367;-31
2022/07/18 04:44:50;;;;;;;4.50;4.10;;;;;;;29.24;37.63;97193.41;5095927;28;20020;-30
2022/07/18 04:47:16;;;;;;;5.05;4.63;;;;;;;29.22;37.63;97190.41;5089613;28;20033;-30
2022/07/18 04:49:41;;;;;;;5.00;4.60;;;;;;;29.25;37.56;97200.53;5082339;28;20071;-30
2022/07/18 04:52:07;;;;;;;5.03;4.63;;;;;;;29.23;37.42;97197.50;5073732;28;20063;-30
2022/07/18 04:54:32;;;;;;;5.30;4.80;;;;;;;29.18;37.62;97196.28;5090634;28;20027;-30
2022/07/18 04:56:58;;;;;;;5.10;4.60;;;;;;;29.23;37.61;97197.50;5094052;28;20077;-30
2022/07/18 04:59:23;;;;;;;5.30;4.80;;;;;;;29.21;37.70;97192.44;5091766;28;20032;-29
2022/07/18 05:01:48;;;;;;;4.70;4.30;;;;;;;29.23;37.50;97200.28;5093730;28;20032;-30
2022/07/18 05:04:14;;;;;;;5.05;4.65;;;;;;;29.20;37.73;97198.56;5093738;28;20030;-30
2022/07/18 05:06:40;;;;;;;4.80;4.40;;;;;;;29.22;37.62;97198.78;5077093;28;20068;-30
2022/07/18 05:09:05;;;;;;;4.82;4.43;;;;;;;29.21;37.70;97200.81;5073404;28;20147;-29
2022/07/18 05:11:30;;;;;;;4.97;4.57;;;;;;;29.21;37.62;97200.81;5073254;28;20028;-29
2022/07/18 05:13:56;;;;;;;5.03;4.57;;;;;;;29.22;37.59;97212.75;5072024;28;20051;-30
2022/07/18 05:16:21;;;;;;;4.80;4.40;;;;;;;29.21;37.72;97205.66;5073316;28;20489;-30
2022/07/18 05:18:47;;;;;;;5.82;4.50;;;;;;;29.20;37.43;97204.91;5073287;28;20090;-30
2022/07/18 05:21:12;;;;;;;5.32;4.85;;;;;;;29.17;37.57;97206.00;5071942;28;20504;-30
2022/07/18 05:23:38;;;;;;;4.60;4.30;;;;;;;29.23;37.33;97214.25;5072829;28;20425;-30
2022/07/18 05:26:04;;;;;;;4.88;4.47;;;;;;;29.20;37.52;97204.16;5073110;28;20107;-30
2022/07/18 05:28:29;;;;;;;4.93;4.35;;;;;;;29.21;37.61;97214.78;5071858;28;20062;-30
2022/07/18 05:30:55;;;;;;;5.28;4.57;;;;;;;29.05;37.86;97215.09;5073164;28;20029;-30
2022/07/18 05:33:21;;;;;;;5.20;4.70;;;;;;;29.19;37.57;97214.56;5072861;28;20048;-30
2022/07/18 05:35:46;;;;;;;5.22;4.72;;;;;;;29.22;37.45;97212.75;5072882;28;20459;-30
2022/07/18 05:38:12;;;;;;;5.97;4.50;;;;;;;29.23;37.55;97217.06;5073019;28;20020;-30
2022/07/18 05:40:37;;;;;;;7.72;4.85;;;;;;;29.23;37.56;97214.25;5072540;28;20024;-30
2022/07/18 05:43:03;;;;;;;5.45;4.88;;;;;;;29.22;37.62;97223.94;5088261;28;20028;-30
2022/07/18 05:45:29;;;;;;;4.70;4.28;;;;;;;29.24;37.39;97229.75;5092956;28;20531;-30
2022/07/18 05:47:55;;;;;;;5.32;4.80;;;;;;;29.19;37.46;97225.75;5092436;28;20085;-30
2022/07/18 05:50:23;;;;;;;4.88;4.47;;;;;;;29.24;37.41;97226.94;5092845;28;20024;-30
2022/07/18 05:52:48;;;;;;;5.60;4.75;;;;;;;29.22;37.48;97216.31;5091481;28;20539;-30
2022/07/18 05:55:14;;;;;;;5.47;4.97;;;;;;;29.20;37.51;97223.69;5091552;28;20032;-30
2022/07/18 05:57:39;;;;;;;5.50;4.97;;;;;;;29.22;37.50;97227.47;5092738;28;20053;-30
2022/07/18 06:00:08;;;;;;;5.15;4.65;;;;;;;29.21;37.50;97222.41;5091031;28;20135;-30
2022/07/18 06:02:33;;;;;;;5.22;4.82;;;;;;;29.23;37.51;97231.03;5092467;28;20384;-30
2022/07/18 06:04:59;;;;;;;4.72;4.32;;;;;;;29.24;37.49;97224.16;5092618;28;20028;-30
2022/07/18 06:07:25;;;;;;;4.57;4.15;;;;;;;29.22;37.61;97230.28;5092662;28;20537;-31
2022/07/18 06:09:50;;;;;;;4.68;4.28;;;;;;;29.24;37.56;97216.53;5092392;28;20055;-30
2022/07/18 06:12:16;;;;;;;5.63;5.00;;;;;;;29.24;37.39;97221.34;5092156;28;20032;-31
2022/07/18 06:14:42;;;;;;;5.45;4.30;;;;;;;29.04;37.85;97225.50;5092222;28;20059;-30
2022/07/18 06:17:07;;;;;;;4.70;4.22;;;;;;;29.12;37.60;97220.78;5092325;28;20024;-30
2022/07/18 06:19:33;;;;;;;5.28;4.53;;;;;;;29.11;37.75;97227.66;5092456;28;20028;-30
2022/07/18 06:22:00;;;;;;;5.43;4.32;;;;;;;29.19;37.58;97228.53;5092152;28;20052;-31
2022/07/18 06:24:26;;;;;;;5.35;4.50;;;;;;;29.11;37.62;97222.06;5092034;28;20038;-30
2022/07/18 06:26:51;;;;;;;5.00;4.50;;;;;;;29.15;37.46;97230.16;5092156;28;20481;-30
2022/07/18 06:29:17;;;;;;;5.00;4.60;;;;;;;29.24;37.46;97235.31;5090768;28;20036;-30
2022/07/18 06:31:43;;;;;;;4.72;4.32;;;;;;;29.26;37.17;97232.75;5092121;28;20024;-31
2022/07/18 06:34:08;;;;;;;4.82;4.43;;;;;;;29.24;37.29;97232.53;5092132;28;20041;-30
2022/07/18 06:36:34;;;;;;;5.50;4.50;;;;;;;29.22;37.36;97230.28;5091583;28;20022;-30
2022/07/18 06:39:01;;;;;;;5.25;4.50;;;;;;;29.23;37.37;97226.19;5092020;28;20123;-30
2022/07/18 06:41:27;;;;;;;4.95;4.55;;;;;;;29.26;37.17;97227.16;5089800;28;20049;-30
2022/07/18 06:43:52;;;;;;;9.27;4.90;;;;;;;29.29;37.27;97228.91;5071674;28;20032;-29
2022/07/18 06:46:19;;;;;;;5.15;4.75;;;;;;;28.91;38.00;97239.41;5071495;28;20024;-29
2022/07/18 06:48:45;;;;;;;4.90;4.40;;;;;;;28.98;37.62;97233.19;5071624;28;20095;-30
2022/07/18 06:51:10;;;;;;;10.02;4.38;;;;;;;29.11;37.88;97232.50;5071609;28;20107;-30
2022/07/18 06:53:36;;;;;;;5.20;4.20;;;;;;;29.16;37.60;97226.06;5071653;28;20443;-30
2022/07/18 06:56:02;;;;;;;4.40;4.10;;;;;;;29.11;37.46;97229.69;5070205;28;20099;-29
2022/07/18 06:58:30;;;;;;;5.75;4.57;;;;;;;28.83;37.96;97230.88;5069494;28;20036;-29
2022/07/18 07:00:56;;;;;;;9.20;4.38;;;;;;;28.91;37.95;97231.03;5071335;28;20508;-30
2022/07/18 07:03:22;;;;;;;5.28;4.10;;;;;;;29.06;37.72;97225.69;5071479;28;20103;-30
2022/07/18 07:05:48;;;;;;;4.38;3.90;;;;;;;29.03;37.75;97228.81;5071458;28;20043;-30
2022/07/18 07:08:13;;;;;;;8.15;4.80;;;;;;;28.61;38.62;97222.78;5070891;28;20107;-30
2022/07/18 07:10:39;;;;;;;4.88;4.38;;;;;;;28.44;38.77;97236.22;5071084;28;20450;-29
2022/07/18 07:13:05;;;;;;;5.65;4.28;;;;;;;28.45;38.74;97229.34;5070665;28;20028;-29
2022/07/18 07:15:31;;;;;;;5.13;4.30;;;;;;;28.56;38.64;97229.22;5070981;28;20359;-29
2022/07/18 07:17:56;;;;;;;5.72;3.85;;;;;;;28.74;37.95;97231.22;5071037;28;20024;-29
2022/07/18 07:20:22;;;;;;;4.93;4.28;;;;;;;28.63;38.44;97231.41;5070953;28;20026;-29
2022/07/18 07:22:56;;;;;;;4.55;4.00;;;;;;;28.86;38.01;97220.69;5070996;28;20474;-29
2022/07/18 07:25:23;;;;;;;6.50;4.82;;;;;;;29.01;37.59;97225.78;5071028;28;20027;-29
2022/07/18 07:27:49;;;;;;;4.82;4.30;;;;;;;28.89;38.10;97231.56;5090837;28;20035;-30
2022/07/18 07:30:15;;;;;;;6.68;4.47;;;;;;;28.91;38.10;97223.41;5091092;28;20050;-30
2022/07/18 07:32:43;;;;;;;5.13;4.20;;;;;;;28.99;37.73;97222.78;5091242;28;20081;-29
2022/07/18 07:35:11;;;;;;;4.28;3.90;;;;;;;28.95;37.93;97223.06;5091012;28;20024;-29
2022/07/18 07:37:38;;;;;;;4.53;4.20;;;;;;;29.09;37.56;97221.84;5091170;28;20036;-29
2022/07/18 07:40:04;;;;;;;5.85;4.50;;;;;;;29.10;37.44;97211.44;5089965;28;20051;-29
2022/07/18 07:42:30;;;;;;;4.32;4.03;;;;;;;29.15;37.57;97213.38;5073398;28;20032;-29
2022/07/18 07:44:55;;;;;;;5.13;4.05;;;;;;;29.14;37.41;97212.63;5073013;28;20036;-29
2022/07/18 07:47:21;;;;;;;4.85;4.45;;;;;;;29.10;37.64;97214.97;5072965;28;20023;-30
2022/07/18 07:49:46;;;;;;;7.18;4.45;;;;;;;29.03;37.87;97206.47;5072918;28;20048;-29
2022/07/18 07:52:13;;;;;;;4.72;4.30;;;;;;;29.12;37.63;97209.63;5071992;28;20107;-30
2022/07/18 07:54:39;;;;;;;4.40;4.00;;;;;;;29.08;37.73;97211.97;5072513;28;20382;-29
2022/07/18 07:57:05;;;;;;;4.75;4.35;;;;;;;29.05;37.81;97215.09;5072931;28;20029;-28
2022/07/18 07:59:31;;;;;;;5.70;4.13;;;;;;;29.11;37.48;97212.94;5072695;28;20497;-29
2022/07/18 08:01:58;;;;;;;5.30;4.32;;;;;;;29.10;37.84;97219.81;5073032;28;20024;-30
2022/07/18 08:04:23;;;;;;;6.68;4.20;;;;;;;29.10;37.78;97211.44;5072640;28;20069;-30
2022/07/18 08:06:49;;;;;;;4.60;4.20;;;;;;;29.15;37.60;97218.97;5072914;28;20024;-29
2022/07/18 08:09:14;;;;;;;5.15;4.22;;;;;;;29.09;37.90;97210.69;5072918;28;20048;-29
2022/07/18 08:11:40;;;;;;;5.47;4.43;;;;;;;29.15;37.73;97211.34;5072983;28;20107;-29
2022/07/18 08:14:05;;;;;;;5.93;4.50;;;;;;;28.90;38.36;97215.56;5079126;28;20045;-29
2022/07/18 08:16:31;;;;;;;7.07;4.40;;;;;;;29.09;37.76;97209.91;5089139;28;20482;-28
2022/07/18 08:18:56;;;;;;;4.75;4.30;;;;;;;29.15;37.66;97202.97;5073842;28;20051;-29
2022/07/18 08:21:22;;;;;;;5.65;4.63;;;;;;;29.13;37.71;97205.53;5072545;28;20020;-29
2022/07/18 08:23:48;;;;;;;4.63;4.10;;;;;;;29.16;37.76;97198.13;5072822;28;20066;-29
2022/07/18 08:26:13;;;;;;;5.90;4.50;;;;;;;29.13;37.70;97202.00;5076245;28;20025;-28
2022/07/18 08:28:39;;;;;;;5.03;4.18;;;;;;;29.15;37.77;97207.81;5076083;28;20163;-29
2022/07/18 08:31:05;;;;;;;6.00;4.25;;;;;;;29.13;37.73;97204.78;5076626;28;20020;-29
2022/07/18 08:33:30;;;;;;;4.95;4.22;;;;;;;29.16;37.64;97198.13;5076402;28;20067;-29
2022/07/18 08:35:56;;;;;;;6.70;4.65;;;;;;;28.86;38.32;97207.47;5076331;28;20111;-28
2022/07/18 08:38:21;;;;;;;4.68;4.28;;;;;;;29.07;37.92;97202.06;5076038;28;20074;-29
2022/07/18 08:40:48;;;;;;;4.70;4.25;;;;;;;29.14;37.70;97195.13;5076078;28;20023;-29
2022/07/18 08:43:15;;;;;;;7.22;4.00;;;;;;;29.17;37.50;97206.00;5075747;28;20070;-29
2022/07/18 08:45:44;;;;;;;6.20;4.15;;;;;;;29.13;37.80;97207.56;5076249;28;20416;-29
2022/07/18 08:48:13;;;;;;;5.38;4.85;;;;;;;29.20;37.51;97210.50;5075933;28;20029;-28
2022/07/18 08:50:38;;;;;;;5.63;4.95;;;;;;;29.15;37.71;97205.00;5076065;28;20078;-29
2022/07/18 08:53:04;;;;;;;6.63;4.05;;;;;;;29.20;37.44;97198.56;5075663;28;20029;-29
2022/07/18 08:55:30;;;;;;;4.75;4.20;;;;;;;29.21;37.58;97205.66;5075815;28;20036;-29
2022/07/18 08:57:56;;;;;;;4.85;4.40;;;;;;;29.17;37.54;97205.22;5074361;28;20028;-29
2022/07/18 09:00:22;;;;;;;7.68;4.45;;;;;;;29.15;37.59;97202.22;5076245;28;20025;-29
2022/07/18 09:02:59;;;;;;;5.20;4.63;;;;;;;29.20;37.55;97204.91;5075523;28;20031;-29
2022/07/18 09:05:24;;;;;;;5.97;4.20;;;;;;;29.22;37.58;97215.53;5075595;28;20027;-28
2022/07/18 09:07:50;;;;;;;4.47;4.18;;;;;;;29.20;37.55;97209.72;5075382;28;20028;-29
2022/07/18 09:10:16;;;;;;;6.25;4.68;;;;;;;29.18;37.73;97210.25;5075435;28;20043;-29
2022/07/18 09:12:56;;;;;;;4.50;4.10;;;;;;;29.13;37.74;97202.75;5075423;28;20032;-29
2022/07/18 09:15:21;;;;;;;4.63;4.18;;;;;;;29.14;37.89;97212.63;5075410;28;20012;-29
2022/07/18 09:17:50;;;;;;;4.70;4.35;;;;;;;29.20;37.52;97209.72;5075091;28;20028;-29
2022/07/18 09:20:16;;;;;;;5.80;4.43;;;;;;;29.27;37.48;97209.13;5075178;28;20493;-29
2022/07/18 09:22:49;;;;;;;5.65;4.13;;;;;;;29.25;37.70;97217.28;5075152;28;20533;-29
2022/07/18 09:25:21;;;;;;;5.22;4.30;;;;;;;29.20;37.62;97212.53;5075087;28;20020;-28
2022/07/18 09:27:49;;;;;;;4.82;4.18;;;;;;;29.23;37.62;97209.44;5077868;28;20059;-28
2022/07/18 09:30:17;;;;;;;4.95;4.15;;;;;;;29.18;37.74;97220.69;5075147;28;20028;-30
2022/07/18 09:32:51;;;;;;;4.78;4.38;;;;;;;29.23;37.39;97219.84;5075128;28;20025;-29
2022/07/18 09:35:26;;;;;;;6.32;4.25;;;;;;;29.22;37.36;97215.53;5074994;28;20031;-29
2022/07/18 09:38:10;;;;;;;4.97;4.40;;;;;;;29.26;37.55;97218.78;5074864;28;20063;-29
2022/07/18 09:40:44;;;;;;;4.65;4.25;;;;;;;29.28;37.54;97213.44;5073177;28;20035;-29
2022/07/18 09:43:16;;;;;;;4.45;4.15;;;;;;;29.21;37.48;97220.38;5074206;28;20037;-29
2022/07/18 09:45:53;;;;;;;5.10;4.63;;;;;;;29.24;37.65;97218.56;5074675;28;20044;-29
2022/07/18 09:48:21;;;;;;;5.03;4.57;;;;;;;29.23;37.57;97217.81;5074715;28;20102;-29
2022/07/18 09:50:52;;;;;;;4.68;4.28;;;;;;;29.22;37.56;97221.13;5075086;28;20025;-30
2022/07/18 09:53:26;;;;;;;5.05;4.47;;;;;;;29.28;37.70;97210.63;5074505;28;20107;-29
2022/07/18 09:56:00;;;;;;;4.40;3.88;;;;;;;29.20;37.65;97216.06;5074569;28;20101;-29
2022/07/18 09:58:28;;;;;;;4.85;4.35;;;;;;;29.25;37.45;97206.09;5074457;28;20032;-29
2022/07/18 10:00:56;;;;;;;5.68;4.60;;;;;;;29.31;37.45;97209.53;5074554;28;20035;-29
2022/07/18 10:03:23;;;;;;;4.60;3.83;;;;;;;29.15;37.72;97207.81;5074326;28;20563;-29
2022/07/18 10:05:51;;;;;;;5.38;4.70;;;;;;;29.08;38.11;97203.56;5074389;28;20142;-28
2022/07/18 10:08:18;;;;;;;4.00;3.70;;;;;;;29.16;37.75;97206.53;5074060;28;20068;-29
2022/07/18 10:10:46;;;;;;;5.03;4.55;;;;;;;29.21;37.75;97206.41;5074696;28;20051;-29
2022/07/18 10:13:13;;;;;;;4.68;4.28;;;;;;;29.25;37.68;97206.09;5073920;28;20094;-29
2022/07/18 10:15:41;;;;;;;5.30;4.50;;;;;;;29.12;38.07;97200.47;5074200;28;20020;-30
2022/07/18 10:18:11;;;;;;;5.13;4.63;;;;;;;29.21;37.69;97205.66;5074049;28;20020;-29
2022/07/18 10:20:36;;;;;;;6.43;4.43;;;;;;;29.22;37.85;97196.00;5074364;28;20026;-29
2022/07/18 10:23:16;;;;;;;4.50;4.18;;;;;;;29.24;38.05;97204.59;5073977;28;20036;-29
2022/07/18 10:25:42;;;;;;;5.85;4.63;;;;;;;29.07;38.14;97202.06;5074261;28;20446;-30
2022/07/18 10:28:13;;;;;;;5.00;4.45;;;;;;;29.07;38.26;97207.66;5073922;28;20028;-29
2022/07/18 10:30:46;;;;;;;4.95;4.43;;;;;;;29.16;38.03;97204.47;5073931;28;20024;-30
2022/07/18 10:33:30;;;;;;;;;;;;;;;29.25;37.95;97201.28;5074180;28;20478;-31
2022/07/18 10:36:04;;;;;;;4.75;4.15;;;;;;;29.05;38.41;97199.06;5074158;28;19908;-29
2022/07/18 10:38:30;;;;;;;6.47;4.40;;;;;;;29.28;38.06;97196.66;5073729;28;20409;-29
2022/07/18 10:41:12;;;;;;;5.15;4.28;;;;;;;29.35;37.81;97193.22;5072452;28;20123;-29
2022/07/18 10:43:41;;;;;;;4.68;4.28;;;;;;;29.25;38.24;97195.69;5073888;28;20025;-29
2022/07/18 10:46:08;;;;;;;4.72;4.32;;;;;;;29.36;37.93;97193.97;5073909;28;20078;-29
2022/07/18 10:48:36;;;;;;;5.72;4.50;;;;;;;29.26;38.29;97185.25;5072719;28;20482;-29
2022/07/18 10:51:07;;;;;;;10.05;4.22;;;;;;;29.40;37.96;97184.03;5073717;28;20115;-29
2022/07/18 10:53:53;;;;;;;5.22;4.57;;;;;;;29.35;38.31;97175.72;5072363;28;20028;-29
2022/07/18 10:56:20;;;;;;;4.53;4.13;;;;;;;29.22;38.47;97179.22;5073763;28;20089;-29
2022/07/18 10:58:45;;;;;;;5.05;4.38;;;;;;;29.21;38.62;97178.47;5073581;28;20032;-29
2022/07/18 11:01:16;;;;;;;5.20;4.68;;;;;;;29.19;38.49;97174.69;5073772;28;20028;-29
2022/07/18 11:03:43;;;;;;;5.30;4.60;;;;;;;29.26;38.47;97174.09;5073386;28;20020;-29
2022/07/18 11:06:09;;;;;;;6.05;4.75;;;;;;;29.21;38.30;97172.88;5073380;28;20016;-30
2022/07/18 11:08:35;;;;;;;5.57;4.82;;;;;;;29.35;38.04;97167.31;5073436;28;20048;-29
2022/07/18 11:11:05;;;;;;;4.95;3.90;;;;;;;29.13;38.67;97165.69;5073488;28;20463;-29
2022/07/18 11:13:37;;;;;;;5.53;4.20;;;;;;;29.22;38.55;97168.81;5073214;28;20016;-29
2022/07/18 11:16:12;;;;;;;4.80;4.40;;;;;;;29.35;38.23;97153.34;5073255;28;20020;-29
2022/07/18 11:18:44;;;;;;;5.75;4.75;;;;;;;29.19;38.59;97157.94;5073337;28;20048;-29
2022/07/18 11:21:23;;;;;;;4.55;4.07;;;;;;;29.19;38.53;97157.94;5073184;28;20028;-29
2022/07/18 11:23:51;;;;;;;4.32;3.95;;;;;;;29.26;38.18;97157.31;5073105;28;20033;-29
2022/07/18 11:26:19;;;;;;;4.85;4.10;;;;;;;29.26;38.26;97157.31;5073140;28;20081;-29
2022/07/18 11:28:46;;;;;;;4.38;4.00;;;;;;;29.16;38.45;97153.44;5073442;28;20021;-29
2022/07/18 11:31:12;;;;;;;5.20;4.20;;;;;;;29.18;38.51;97145.25;5073433;28;20420;-28
2022/07/18 11:33:45;;;;;;;5.18;4.78;;;;;;;29.22;38.35;97137.34;5073359;28;20028;-28
2022/07/18 11:36:13;;;;;;;5.35;4.68;;;;;;;29.19;38.47;97136.34;5073120;28;20027;-29